createdAt,value
2016-05-15T00:00:59.390Z,90.14
2016-05-15T00:01:59.205Z,89.95
2016-05-15T00:02:59.348Z,90
2016-05-15T00:03:59.524Z,90.29
2016-05-15T00:04:59.324Z,90.38
2016-05-15T00:05:59.310Z,90.14
2016-05-15T00:06:59.297Z,90.57
2016-05-15T00:07:59.268Z,90.38
2016-05-15T00:08:59.254Z,90.38
2016-05-15T00:09:59.242Z,90.67
2016-05-15T00:10:59.230Z,90.67
2016-05-15T00:11:59.060Z,90.76
2016-05-15T00:12:59.188Z,90.57
2016-05-15T00:13:59.175Z,90.57
2016-05-15T00:14:59.162Z,90.67
2016-05-15T00:15:58.993Z,90.57
2016-05-15T00:16:59.120Z,90.76
2016-05-15T00:17:59.108Z,90.67
2016-05-15T00:18:59.095Z,90.86
2016-05-15T00:19:59.847Z,90.57
2016-05-15T00:20:59.069Z,90.57
2016-05-15T00:21:59.040Z,90.38
2016-05-15T00:22:58.886Z,90.48
2016-05-15T00:23:59.015Z,90.86
2016-05-15T00:24:59.002Z,90.86
2016-05-15T00:25:58.989Z,91.05
2016-05-15T00:26:58.975Z,91.05
2016-05-15T00:27:59.244Z,91.14
2016-05-15T00:28:58.933Z,91.33
2016-05-15T00:29:58.921Z,91.05
2016-05-15T00:30:58.908Z,91.05
2016-05-15T00:31:59.083Z,91.05
2016-05-15T00:32:58.867Z,91.33
2016-05-15T00:33:58.854Z,90.95
2016-05-15T00:34:58.841Z,91.24
2016-05-15T00:35:58.827Z,91.05
2016-05-15T00:36:58.799Z,91.71
2016-05-15T00:37:58.990Z,91.71
2016-05-15T00:38:58.632Z,91.71
2016-05-15T00:39:58.760Z,91.9
2016-05-15T00:40:58.732Z,91.99
2016-05-15T00:41:58.718Z,91.9
2016-05-15T00:42:58.550Z,92.09
2016-05-15T00:43:58.693Z,92.09
2016-05-15T00:44:58.665Z,92.38
2016-05-15T00:45:58.651Z,92.47
2016-05-15T00:46:59.342Z,92.28
2016-05-15T00:47:58.626Z,92.47
2016-05-15T00:48:58.878Z,92.18
2016-05-15T00:49:58.601Z,92.66
2016-05-15T00:50:58.572Z,92.18
2016-05-15T00:51:58.559Z,92.28
2016-05-15T00:52:58.545Z,92.76
2016-05-15T00:53:58.517Z,92.66
2016-05-15T00:54:58.503Z,92.57
2016-05-15T00:55:58.491Z,92.85
2016-05-15T00:56:58.478Z,92.85
2016-05-15T00:57:58.466Z,93.04
2016-05-15T00:58:59.343Z,93.23
2016-05-15T00:59:58.439Z,92.66
2016-05-15T01:00:58.411Z,92.76
2016-05-15T01:01:58.397Z,92.66
2016-05-15T01:02:58.369Z,92.57
2016-05-15T01:03:58.216Z,92.94
2016-05-15T01:04:58.344Z,92.66
2016-05-15T01:05:58.174Z,93.23
2016-05-15T01:06:58.318Z,92.94
2016-05-15T01:07:58.305Z,93.04
2016-05-15T01:08:58.291Z,93.04
2016-05-15T01:09:58.263Z,92.66
2016-05-15T01:10:58.251Z,92.66
2016-05-15T01:11:58.238Z,93.23
2016-05-15T01:12:58.224Z,93.23
2016-05-15T01:13:58.212Z,93.8
2016-05-15T01:14:58.198Z,93.41
2016-05-15T01:15:58.170Z,92.85
2016-05-15T01:16:58.157Z,93.51
2016-05-15T01:17:58.144Z,93.61
2016-05-15T01:18:58.193Z,93.7
2016-05-15T01:19:57.946Z,93.61
2016-05-15T01:20:58.089Z,92.94
2016-05-15T01:21:58.077Z,93.13
2016-05-15T01:22:58.064Z,92.94
2016-05-15T01:23:58.036Z,93.13
2016-05-15T01:24:58.022Z,92.85
2016-05-15T01:25:58.009Z,92.94
2016-05-15T01:26:57.997Z,92.94
2016-05-15T01:27:57.811Z,93.04
2016-05-15T01:28:57.955Z,93.04
2016-05-15T01:29:57.958Z,93.13
2016-05-15T01:30:57.944Z,93.32
2016-05-15T01:31:57.932Z,92.94
2016-05-15T01:32:57.903Z,92.76
2016-05-15T01:33:58.203Z,93.13
2016-05-15T01:34:57.877Z,93.13
2016-05-15T01:35:57.864Z,93.04
2016-05-15T01:36:57.852Z,92.94
2016-05-15T01:37:57.823Z,93.51
2016-05-15T01:38:57.826Z,93.23
2016-05-15T01:39:57.797Z,93.23
2016-05-15T01:40:57.627Z,93.32
2016-05-15T01:41:57.755Z,92.94
2016-05-15T01:42:57.742Z,92.94
2016-05-15T01:43:57.729Z,92.85
2016-05-15T01:44:57.717Z,92.94
2016-05-15T01:45:57.703Z,93.04
2016-05-15T01:46:57.675Z,92.94
2016-05-15T01:47:57.662Z,93.04
2016-05-15T01:48:57.665Z,93.32
2016-05-15T01:49:57.621Z,92.94
2016-05-15T01:50:57.623Z,92.28
2016-05-15T01:51:57.626Z,92.57
2016-05-15T01:52:57.581Z,92.57
2016-05-15T01:53:57.570Z,92.18
2016-05-15T01:54:57.556Z,92.76
2016-05-15T01:55:57.528Z,92.09
2016-05-15T01:56:57.514Z,92.09
2016-05-15T01:57:57.502Z,92.28
2016-05-15T01:58:57.489Z,91.94
2016-05-15T01:59:57.475Z,91.66
2016-05-15T02:00:57.447Z,91.71
2016-05-15T02:01:57.434Z,91.52
2016-05-15T02:02:57.266Z,91.33
2016-05-15T02:03:57.783Z,91.47
2016-05-15T02:04:57.396Z,91.66
2016-05-15T02:05:57.210Z,91.66
2016-05-15T02:06:57.354Z,91.75
2016-05-15T02:07:57.341Z,91.47
2016-05-15T02:08:57.327Z,91.47
2016-05-15T02:09:57.316Z,91.47
2016-05-15T02:10:57.302Z,91.42
2016-05-15T02:11:57.274Z,91.61
2016-05-15T02:12:57.260Z,91.38
2016-05-15T02:13:57.092Z,91.56
2016-05-15T02:14:57.235Z,91.42
2016-05-15T02:15:57.206Z,91.56
2016-05-15T02:16:57.210Z,91.52
2016-05-15T02:17:57.181Z,91.61
2016-05-15T02:18:57.167Z,91.56
2016-05-15T02:19:57.155Z,91.56
2016-05-15T02:20:57.126Z,91.47
2016-05-15T02:21:57.113Z,91.33
2016-05-15T02:22:57.100Z,91.42
2016-05-15T02:23:57.087Z,91.42
2016-05-15T02:24:56.903Z,91.71
2016-05-15T02:25:57.045Z,91.24
2016-05-15T02:26:57.048Z,91.09
2016-05-15T02:27:57.020Z,91.38
2016-05-15T02:28:57.007Z,91.33
2016-05-15T02:29:56.994Z,90.76
2016-05-15T02:30:56.966Z,90.95
2016-05-15T02:31:56.952Z,90.76
2016-05-15T02:32:56.940Z,90.95
2016-05-15T02:33:56.927Z,90.52
2016-05-15T02:34:56.913Z,90.71
2016-05-15T02:35:56.885Z,91
2016-05-15T02:36:56.872Z,90.81
2016-05-15T02:37:56.860Z,90.81
2016-05-15T02:38:56.877Z,90.33
2016-05-15T02:39:56.849Z,91
2016-05-15T02:40:56.821Z,90.62
2016-05-15T02:41:56.791Z,90.81
2016-05-15T02:42:56.623Z,90.71
2016-05-15T02:43:56.766Z,90.62
2016-05-15T02:44:56.738Z,90.62
2016-05-15T02:45:56.724Z,90.33
2016-05-15T02:46:56.712Z,90.62
2016-05-15T02:47:56.698Z,90.71
2016-05-15T02:48:56.998Z,90.71
2016-05-15T02:49:56.673Z,90.52
2016-05-15T02:50:56.659Z,90.05
2016-05-15T02:51:56.632Z,89.86
2016-05-15T02:52:56.618Z,90.24
2016-05-15T02:53:56.605Z,90.05
2016-05-15T02:54:56.592Z,90.14
2016-05-15T02:55:56.579Z,90.33
2016-05-15T02:56:56.551Z,89.95
2016-05-15T02:57:56.538Z,89.86
2016-05-15T02:58:56.526Z,89.58
2016-05-15T02:59:56.356Z,89.58
2016-05-15T03:00:56.499Z,89.76
2016-05-15T03:01:56.470Z,89.67
2016-05-15T03:02:56.458Z,89.67
2016-05-15T03:03:56.288Z,89.48
2016-05-15T03:04:56.432Z,89.58
2016-05-15T03:05:56.419Z,89.58
2016-05-15T03:06:56.391Z,89.67
2016-05-15T03:07:56.377Z,89.48
2016-05-15T03:08:56.364Z,89.95
2016-05-15T03:09:56.352Z,90.24
2016-05-15T03:10:56.338Z,89.95
2016-05-15T03:11:56.326Z,90.33
2016-05-15T03:12:56.157Z,89.95
2016-05-15T03:13:56.285Z,90.33
2016-05-15T03:14:56.302Z,90.05
2016-05-15T03:15:56.258Z,89.95
2016-05-15T03:16:56.246Z,89.86
2016-05-15T03:17:56.232Z,89.95
2016-05-15T03:18:56.204Z,90.33
2016-05-15T03:19:56.034Z,90.33
2016-05-15T03:20:56.179Z,90.14
2016-05-15T03:21:56.165Z,90.24
2016-05-15T03:22:55.995Z,89.95
2016-05-15T03:23:56.109Z,90.14
2016-05-15T03:24:56.111Z,90.05
2016-05-15T03:25:56.097Z,89.67
2016-05-15T03:26:56.085Z,89.86
2016-05-15T03:27:56.072Z,89.86
2016-05-15T03:28:56.059Z,90.14
2016-05-15T03:29:56.045Z,90.33
2016-05-15T03:30:56.033Z,90.05
2016-05-15T03:31:56.020Z,90.14
2016-05-15T03:32:55.991Z,89.86
2016-05-15T03:33:55.978Z,89.58
2016-05-15T03:34:55.809Z,89.95
2016-05-15T03:35:55.969Z,90
2016-05-15T03:36:55.939Z,90.19
2016-05-15T03:37:55.927Z,90
2016-05-15T03:38:55.914Z,89.72
2016-05-15T03:39:55.885Z,89.53
2016-05-15T03:40:55.872Z,90
2016-05-15T03:41:55.860Z,89.72
2016-05-15T03:42:55.831Z,89.53
2016-05-15T03:43:55.833Z,89.72
2016-05-15T03:44:55.804Z,89.72
2016-05-15T03:45:55.793Z,89.72
2016-05-15T03:46:55.779Z,89.72
2016-05-15T03:47:55.765Z,89.72
2016-05-15T03:48:55.754Z,89.72
2016-05-15T03:49:55.569Z,89.53
2016-05-15T03:50:55.556Z,89.05
2016-05-15T03:51:55.698Z,89.72
2016-05-15T03:52:55.687Z,89.62
2016-05-15T03:53:55.673Z,89.72
2016-05-15T03:54:55.644Z,89.14
2016-05-15T03:55:55.648Z,89.33
2016-05-15T03:56:55.618Z,88.76
2016-05-15T03:57:55.621Z,88.67
2016-05-15T03:58:55.592Z,88.76
2016-05-15T03:59:55.580Z,88.57
2016-05-15T04:00:55.551Z,89.33
2016-05-15T04:01:55.553Z,88.86
2016-05-15T04:02:55.525Z,88.76
2016-05-15T04:03:56.075Z,89.14
2016-05-15T04:04:55.500Z,88.95
2016-05-15T04:05:55.471Z,88.67
2016-05-15T04:06:55.692Z,88.57
2016-05-15T04:07:55.445Z,88.67
2016-05-15T04:08:55.432Z,88.67
2016-05-15T04:09:55.419Z,88.86
2016-05-15T04:10:55.250Z,88.48
2016-05-15T04:11:55.394Z,88.57
2016-05-15T04:12:55.380Z,88.57
2016-05-15T04:13:55.367Z,88.76
2016-05-15T04:14:55.339Z,88.95
2016-05-15T04:15:55.341Z,88.86
2016-05-15T04:16:55.312Z,88.76
2016-05-15T04:17:55.300Z,88.57
2016-05-15T04:18:55.287Z,88.39
2016-05-15T04:19:55.274Z,88.76
2016-05-15T04:20:55.105Z,88.67
2016-05-15T04:21:55.249Z,88.67
2016-05-15T04:22:55.220Z,88.57
2016-05-15T04:23:55.206Z,88.48
2016-05-15T04:24:55.241Z,88.76
2016-05-15T04:25:55.181Z,88.86
2016-05-15T04:26:55.168Z,88.48
2016-05-15T04:27:55.139Z,88.57
2016-05-15T04:28:55.126Z,88.76
2016-05-15T04:29:55.114Z,88.67
2016-05-15T04:30:55.100Z,89.24
2016-05-15T04:31:55.087Z,88.67
2016-05-15T04:32:54.919Z,89.53
2016-05-15T04:33:55.062Z,89.14
2016-05-15T04:34:54.877Z,89.14
2016-05-15T04:35:54.864Z,89.05
2016-05-15T04:36:54.851Z,89.43
2016-05-15T04:37:54.994Z,89.43
2016-05-15T04:38:54.997Z,89.24
2016-05-15T04:39:54.969Z,89.81
2016-05-15T04:40:54.955Z,89.72
2016-05-15T04:41:54.943Z,89.43
2016-05-15T04:42:54.930Z,89.53
2016-05-15T04:43:54.932Z,89.72
2016-05-15T04:44:54.888Z,89.72
2016-05-15T04:45:54.874Z,89.81
2016-05-15T04:46:54.863Z,89.33
2016-05-15T04:47:54.849Z,89.14
2016-05-15T04:48:55.305Z,89.43
2016-05-15T04:49:54.808Z,89.43
2016-05-15T04:50:54.795Z,89.14
2016-05-15T04:51:54.782Z,89.14
2016-05-15T04:52:54.769Z,89.33
2016-05-15T04:53:54.756Z,89.33
2016-05-15T04:54:54.743Z,89.33
2016-05-15T04:55:54.731Z,89.24
2016-05-15T04:56:54.718Z,89.33
2016-05-15T04:57:54.704Z,88.76
2016-05-15T04:58:54.692Z,89.14
2016-05-15T04:59:54.694Z,88.39
2016-05-15T05:00:54.665Z,88.86
2016-05-15T05:01:54.637Z,88.53
2016-05-15T05:02:54.467Z,88.24
2016-05-15T05:03:54.612Z,88.81
2016-05-15T05:04:54.614Z,88.81
2016-05-15T05:05:54.585Z,89
2016-05-15T05:06:54.573Z,88.86
2016-05-15T05:07:54.544Z,88.76
2016-05-15T05:08:54.390Z,89.53
2016-05-15T05:09:54.362Z,89.43
2016-05-15T05:10:54.349Z,89.19
2016-05-15T05:11:54.492Z,88.53
2016-05-15T05:12:54.479Z,88.71
2016-05-15T05:13:54.466Z,88.9
2016-05-15T05:14:54.453Z,89
2016-05-15T05:15:54.440Z,88.81
2016-05-15T05:16:54.427Z,88.53
2016-05-15T05:17:54.415Z,88.62
2016-05-15T05:18:54.402Z,88.15
2016-05-15T05:19:54.373Z,88.43
2016-05-15T05:20:54.360Z,87.95
2016-05-15T05:21:54.347Z,88.15
2016-05-15T05:22:54.334Z,87.38
2016-05-15T05:23:54.321Z,87.57
2016-05-15T05:24:54.308Z,87.29
2016-05-15T05:25:54.296Z,87.48
2016-05-15T05:26:54.282Z,87.57
2016-05-15T05:27:54.253Z,86.86
2016-05-15T05:28:54.241Z,86.47
2016-05-15T05:29:54.243Z,86.38
2016-05-15T05:30:54.230Z,86.1
2016-05-15T05:31:54.045Z,85.34
2016-05-15T05:32:54.049Z,84.86
2016-05-15T05:33:54.192Z,84.39
2016-05-15T05:34:54.006Z,84.05
2016-05-15T05:35:54.167Z,82.81
2016-05-15T05:36:53.997Z,82.43
2016-05-15T05:37:54.139Z,81.86
2016-05-15T05:38:54.127Z,80.1
2016-05-15T05:39:53.958Z,80
2016-05-15T05:40:54.086Z,79.62
2016-05-15T05:41:54.088Z,79.62
2016-05-15T05:42:54.091Z,79.14
2016-05-15T05:43:54.063Z,78.71
2016-05-15T05:44:54.049Z,78.14
2016-05-15T05:45:54.036Z,78.1
2016-05-15T05:46:53.868Z,78.57
2016-05-15T05:47:54.027Z,79.24
2016-05-15T05:48:54.013Z,79.72
2016-05-15T05:49:54.001Z,79.77
2016-05-15T05:50:53.988Z,80.44
2016-05-15T05:51:53.974Z,80.44
2016-05-15T05:52:53.962Z,81.1
2016-05-15T05:53:53.949Z,80.72
2016-05-15T05:54:53.935Z,81.1
2016-05-15T05:55:53.923Z,81.48
2016-05-15T05:56:53.910Z,82.15
2016-05-15T05:57:53.897Z,81.48
2016-05-15T05:58:53.884Z,82.05
2016-05-15T05:59:53.870Z,81.58
2016-05-15T06:00:53.859Z,81.38
2016-05-15T06:01:53.845Z,81.38
2016-05-15T06:02:53.832Z,81.38
2016-05-15T06:03:53.679Z,81.67
2016-05-15T06:04:54.181Z,81.86
2016-05-15T06:05:53.794Z,81.77
2016-05-15T06:06:53.781Z,81.38
2016-05-15T06:07:53.783Z,81.48
2016-05-15T06:08:53.755Z,81.38
2016-05-15T06:09:53.741Z,81.38
2016-05-15T06:10:53.745Z,82.24
2016-05-15T06:11:53.731Z,81.38
2016-05-15T06:12:53.703Z,81.58
2016-05-15T06:13:53.690Z,81.38
2016-05-15T06:14:53.521Z,81.38
2016-05-15T06:15:53.524Z,81.1
2016-05-15T06:16:53.666Z,81.2
2016-05-15T06:17:53.639Z,81.1
2016-05-15T06:18:53.750Z,81.2
2016-05-15T06:19:53.456Z,81.29
2016-05-15T06:20:53.616Z,80.82
2016-05-15T06:21:53.602Z,80.91
2016-05-15T06:22:53.589Z,80.72
2016-05-15T06:23:53.576Z,81.01
2016-05-15T06:24:53.391Z,81.1
2016-05-15T06:25:53.551Z,80.91
2016-05-15T06:26:53.537Z,80.44
2016-05-15T06:27:53.524Z,79.77
2016-05-15T06:28:53.512Z,79.49
2016-05-15T06:29:53.498Z,80.05
2016-05-15T06:30:53.486Z,80.24
2016-05-15T06:31:53.473Z,79.96
2016-05-15T06:32:53.460Z,80.15
2016-05-15T06:33:53.290Z,80.15
2016-05-15T06:34:53.856Z,80.24
2016-05-15T06:35:53.421Z,80.44
2016-05-15T06:36:53.408Z,80.53
2016-05-15T06:37:53.395Z,80.34
2016-05-15T06:38:53.382Z,80.34
2016-05-15T06:39:53.214Z,80.57
2016-05-15T06:40:53.356Z,80
2016-05-15T06:41:53.358Z,79.52
2016-05-15T06:42:53.331Z,79.81
2016-05-15T06:43:53.317Z,80.19
2016-05-15T06:44:53.305Z,80.24
2016-05-15T06:45:53.135Z,79.72
2016-05-15T06:46:53.280Z,79.62
2016-05-15T06:47:53.266Z,78.96
2016-05-15T06:48:53.627Z,79.14
2016-05-15T06:49:53.553Z,78.57
2016-05-15T06:50:53.243Z,78.57
2016-05-15T06:51:53.229Z,77.76
2016-05-15T06:52:53.216Z,76.61
2016-05-15T06:53:53.204Z,75.85
2016-05-15T06:54:53.191Z,75.23
2016-05-15T06:55:53.178Z,74.94
2016-05-15T06:56:53.165Z,74.08
2016-05-15T06:57:53.168Z,73.65
2016-05-15T06:58:53.154Z,73.65
2016-05-15T06:59:53.142Z,73.07
2016-05-15T07:00:53.129Z,72.88
2016-05-15T07:01:53.116Z,72.12
2016-05-15T07:02:53.118Z,72.44
2016-05-15T07:03:53.106Z,71.96
2016-05-15T07:04:53.093Z,71.11
2016-05-15T07:05:53.080Z,70.76
2016-05-15T07:06:53.082Z,70.38
2016-05-15T07:07:53.070Z,69.68
2016-05-15T07:08:53.056Z,68.66
2016-05-15T07:09:53.044Z,68.76
2016-05-15T07:10:53.046Z,69.52
2016-05-15T07:11:53.034Z,70
2016-05-15T07:12:53.036Z,70.67
2016-05-15T07:13:53.022Z,70.47
2016-05-15T07:14:53.011Z,70.38
2016-05-15T07:15:53.013Z,70.95
2016-05-15T07:16:53.000Z,71.91
2016-05-15T07:17:52.988Z,73.01
2016-05-15T07:18:52.990Z,73.49
2016-05-15T07:19:53.118Z,73.83
2016-05-15T07:20:52.963Z,74.12
2016-05-15T07:21:52.794Z,74.6
2016-05-15T07:22:52.985Z,74.65
2016-05-15T07:23:52.941Z,74.94
2016-05-15T07:24:52.927Z,74.37
2016-05-15T07:25:52.915Z,74.27
2016-05-15T07:26:52.918Z,74.08
2016-05-15T07:27:52.889Z,74.08
2016-05-15T07:28:52.735Z,73.61
2016-05-15T07:29:52.863Z,73.61
2016-05-15T07:30:52.866Z,73.61
2016-05-15T07:31:52.853Z,73.55
2016-05-15T07:32:52.856Z,73.65
2016-05-15T07:33:52.827Z,73.61
2016-05-15T07:34:52.673Z,74.5
2016-05-15T07:35:52.816Z,74.08
2016-05-15T07:36:52.804Z,74.84
2016-05-15T07:37:52.791Z,74.69
2016-05-15T07:38:52.798Z,74.4
2016-05-15T07:39:52.828Z,74.75
2016-05-15T07:40:52.875Z,74.56
2016-05-15T07:41:52.733Z,74.46
2016-05-15T07:42:52.935Z,74.84
2016-05-15T07:43:52.953Z,74.18
2016-05-15T07:44:52.956Z,74.5
2016-05-15T07:45:52.959Z,72.82
2016-05-15T07:46:52.977Z,72.25
2016-05-15T07:47:52.980Z,72.02
2016-05-15T07:48:52.978Z,71.93
2016-05-15T07:49:52.970Z,72.02
2016-05-15T07:50:52.963Z,71.73
2016-05-15T07:51:52.955Z,71.26
2016-05-15T07:52:59.448Z,70.63
2016-05-15T07:53:52.798Z,69.52
2016-05-15T07:54:52.958Z,69.58
2016-05-15T07:55:52.932Z,70.34
2016-05-15T07:56:52.936Z,69.96
2016-05-15T07:57:52.926Z,70.15
2016-05-15T07:58:52.914Z,69.77
2016-05-15T07:59:52.918Z,68.76
2016-05-15T08:00:52.905Z,68.09
2016-05-15T08:01:52.736Z,66.88
2016-05-15T08:02:52.740Z,66.28
2016-05-15T08:03:53.197Z,65.74
2016-05-15T08:04:52.715Z,65.55
2016-05-15T08:05:52.874Z,66.38
2016-05-15T08:06:52.863Z,66.38
2016-05-15T08:07:52.850Z,66.34
2016-05-15T08:08:52.852Z,65.42
2016-05-15T08:09:52.841Z,64.18
2016-05-15T08:10:52.827Z,64.94
2016-05-15T08:11:52.657Z,65.89
2016-05-15T08:12:52.660Z,65.2
2016-05-15T08:13:52.804Z,64.15
2016-05-15T08:14:52.791Z,64.05
2016-05-15T08:15:52.777Z,64.53
2016-05-15T08:16:52.765Z,67
2016-05-15T08:17:52.783Z,67.86
2016-05-15T08:18:52.754Z,68.72
2016-05-15T08:19:52.882Z,68.63
2016-05-15T08:20:52.729Z,69.58
2016-05-15T08:21:52.732Z,69.58
2016-05-15T08:22:52.750Z,68.91
2016-05-15T08:23:52.815Z,68.91
2016-05-15T08:24:52.709Z,69.39
2016-05-15T08:25:52.523Z,68.82
2016-05-15T08:26:52.526Z,68.72
2016-05-15T08:27:52.669Z,67.77
2016-05-15T08:28:52.657Z,67.35
2016-05-15T08:29:52.675Z,67.74
2016-05-15T08:30:52.646Z,67.55
2016-05-15T08:31:52.633Z,68.46
2016-05-15T08:32:52.464Z,69.04
2016-05-15T08:33:52.608Z,70.18
2016-05-15T08:34:52.438Z,71.03
2016-05-15T08:35:52.582Z,72.37
2016-05-15T08:36:52.616Z,74.37
2016-05-15T08:37:52.555Z,75.95
2016-05-15T08:38:52.387Z,76.81
2016-05-15T08:39:52.561Z,77.56
2016-05-15T08:40:52.532Z,78.52
2016-05-15T08:41:52.519Z,79.85
2016-05-15T08:42:52.350Z,79.66
2016-05-15T08:43:52.494Z,79.66
2016-05-15T08:44:52.480Z,79.85
2016-05-15T08:45:52.483Z,80.33
2016-05-15T08:46:52.455Z,79.85
2016-05-15T08:47:52.442Z,80.13
2016-05-15T08:48:52.445Z,79.32
2016-05-15T08:49:52.416Z,76.79
2016-05-15T08:50:52.419Z,77.2
2016-05-15T08:51:52.406Z,77.11
2016-05-15T08:52:52.409Z,75.24
2016-05-15T08:53:52.379Z,74.1
2016-05-15T08:54:52.367Z,74.99
2016-05-15T08:55:52.370Z,73.56
2016-05-15T08:56:52.357Z,72.57
2016-05-15T08:57:52.344Z,72.28
2016-05-15T08:58:52.347Z,73.33
2016-05-15T08:59:52.318Z,72.38
2016-05-15T09:00:52.320Z,73.05
2016-05-15T09:01:52.151Z,70.28
2016-05-15T09:02:52.295Z,71.48
2016-05-15T09:03:52.281Z,70.92
2016-05-15T09:04:52.270Z,67.58
2016-05-15T09:05:52.256Z,65.89
2016-05-15T09:06:52.258Z,64.18
2016-05-15T09:07:52.246Z,63.54
2016-05-15T09:08:52.232Z,62.91
2016-05-15T09:09:52.063Z,62.34
2016-05-15T09:10:52.223Z,62.24
2016-05-15T09:11:52.210Z,63.1
2016-05-15T09:12:52.212Z,62.71
2016-05-15T09:13:52.200Z,62.71
2016-05-15T09:14:52.046Z,62.08
2016-05-15T09:15:52.173Z,61.06
2016-05-15T09:16:52.473Z,60.87
2016-05-15T09:17:52.164Z,59.53
2016-05-15T09:18:52.151Z,59.81
2016-05-15T09:19:52.481Z,60.3
2016-05-15T09:20:52.140Z,60.77
2016-05-15T09:21:52.142Z,60.84
2016-05-15T09:22:52.130Z,61.13
2016-05-15T09:23:52.117Z,60.07
2016-05-15T09:24:52.120Z,60.64
2016-05-15T09:25:52.107Z,60.61
2016-05-15T09:26:52.093Z,60.81
2016-05-15T09:27:52.096Z,60.71
2016-05-15T09:28:52.084Z,60.71
2016-05-15T09:29:52.070Z,58.54
2016-05-15T09:30:52.073Z,56.85
2016-05-15T09:31:51.904Z,56.02
2016-05-15T09:32:52.063Z,54.61
2016-05-15T09:33:52.050Z,54.59
2016-05-15T09:34:52.287Z,55.16
2016-05-15T09:35:52.055Z,54.59
2016-05-15T09:36:52.027Z,55.23
2016-05-15T09:37:52.030Z,55.11
2016-05-15T09:38:52.017Z,55.58
2016-05-15T09:39:52.003Z,54.37
2016-05-15T09:40:52.006Z,54.08
2016-05-15T09:41:51.994Z,53.89
2016-05-15T09:42:51.980Z,54.47
2016-05-15T09:43:51.983Z,55.04
2016-05-15T09:44:51.970Z,55.52
2016-05-15T09:45:51.958Z,55.23
2016-05-15T09:46:51.960Z,55.13
2016-05-15T09:47:52.650Z,54.08
2016-05-15T09:48:51.949Z,53.51
2016-05-15T09:49:51.952Z,53.86
2016-05-15T09:50:51.971Z,55.18
2016-05-15T09:51:51.927Z,55.11
2016-05-15T09:52:51.913Z,55.2
2016-05-15T09:53:51.916Z,55.58
2016-05-15T09:54:51.747Z,56.23
2016-05-15T09:55:51.906Z,56.23
2016-05-15T09:56:51.737Z,56.87
2016-05-15T09:57:51.880Z,57.72
2016-05-15T09:58:51.712Z,58.48
2016-05-15T09:59:51.854Z,58.87
2016-05-15T10:00:52.045Z,59.6
2016-05-15T10:01:51.828Z,59.99
2016-05-15T10:02:51.987Z,60.75
2016-05-15T10:03:51.818Z,60.84
2016-05-15T10:04:51.820Z,61.41
2016-05-15T10:05:51.792Z,61.22
2016-05-15T10:06:51.795Z,60.65
2016-05-15T10:07:51.767Z,61
2016-05-15T10:08:51.769Z,61.19
2016-05-15T10:09:51.755Z,61.19
2016-05-15T10:10:51.743Z,61.57
2016-05-15T10:11:51.731Z,61.57
2016-05-15T10:12:51.717Z,61.1
2016-05-15T10:13:51.563Z,61.19
2016-05-15T10:14:51.708Z,60.91
2016-05-15T10:15:51.694Z,60.84
2016-05-15T10:16:51.697Z,60.62
2016-05-15T10:17:51.512Z,60.55
2016-05-15T10:18:51.656Z,60.17
2016-05-15T10:19:51.674Z,60.84
2016-05-15T10:20:51.630Z,60.46
2016-05-15T10:21:51.632Z,58.58
2016-05-15T10:22:51.618Z,56.54
2016-05-15T10:23:51.607Z,55.01
2016-05-15T10:24:51.609Z,54.15
2016-05-15T10:25:51.596Z,54.18
2016-05-15T10:26:51.583Z,53.32
2016-05-15T10:27:51.679Z,53.61
2016-05-15T10:28:51.589Z,52.17
2016-05-15T10:29:51.576Z,52.01
2016-05-15T10:30:51.562Z,52.1
2016-05-15T10:31:51.550Z,50.86
2016-05-15T10:32:51.553Z,50.19
2016-05-15T10:33:51.540Z,50.41
2016-05-15T10:34:52.323Z,50.09
2016-05-15T10:35:51.528Z,50.67
2016-05-15T10:36:51.532Z,50.5
2016-05-15T10:37:51.520Z,50.6
2016-05-15T10:38:51.506Z,50.7
2016-05-15T10:39:51.508Z,50.89
2016-05-15T10:40:51.497Z,50.86
2016-05-15T10:41:51.499Z,50.76
2016-05-15T10:42:51.486Z,51.24
2016-05-15T10:43:51.488Z,51.34
2016-05-15T10:44:51.460Z,51.6
2016-05-15T10:45:51.478Z,51.6
2016-05-15T10:46:51.450Z,52.24
2016-05-15T10:47:51.452Z,52.62
2016-05-15T10:48:51.439Z,53.77
2016-05-15T10:49:51.332Z,53.93
2016-05-15T10:50:51.430Z,55.08
2016-05-15T10:51:51.401Z,55.62
2016-05-15T10:52:51.403Z,56.96
2016-05-15T10:53:51.390Z,57.43
2016-05-15T10:54:51.376Z,57.63
2016-05-15T10:55:51.380Z,57.72
2016-05-15T10:56:51.195Z,58.2
2016-05-15T10:57:51.354Z,58.11
2016-05-15T10:58:51.340Z,58.07
2016-05-15T10:59:51.329Z,58.65
2016-05-15T11:00:51.315Z,58.75
2016-05-15T11:01:51.162Z,58.29
2016-05-15T11:02:51.289Z,57.92
2016-05-15T11:03:51.293Z,57.15
2016-05-15T11:04:51.528Z,56.87
2016-05-15T11:05:51.470Z,56.58
2016-05-15T11:06:51.269Z,56.96
2016-05-15T11:07:51.084Z,56.58
2016-05-15T11:08:51.086Z,56.77
2016-05-15T11:09:51.231Z,56.96
2016-05-15T11:10:51.217Z,57.82
2016-05-15T11:11:51.220Z,58.39
2016-05-15T11:12:51.035Z,58.29
2016-05-15T11:13:51.178Z,58.26
2016-05-15T11:14:51.180Z,58.55
2016-05-15T11:15:51.184Z,58.94
2016-05-15T11:16:51.155Z,60.27
2016-05-15T11:17:51.142Z,61.32
2016-05-15T11:18:50.973Z,62.08
2016-05-15T11:19:51.132Z,62.94
2016-05-15T11:20:51.119Z,62.91
2016-05-15T11:21:51.106Z,63.96
2016-05-15T11:22:51.093Z,65.1
2016-05-15T11:24:07.205Z,65.86
2016-05-15T11:24:51.067Z,66.44
2016-05-15T11:25:51.054Z,66.34
2016-05-15T11:26:50.885Z,65.96
2016-05-15T11:27:50.887Z,66.34
2016-05-15T11:28:50.859Z,65.29
2016-05-15T11:29:51.003Z,64.15
2016-05-15T11:30:51.006Z,63.23
2016-05-15T11:31:50.992Z,63.04
2016-05-15T11:32:50.979Z,63.13
2016-05-15T11:33:50.967Z,61.54
2016-05-15T11:34:50.954Z,60.14
2016-05-15T11:35:50.940Z,57.97
2016-05-15T11:36:50.943Z,55.35
2016-05-15T11:37:50.774Z,54.11
2016-05-15T11:38:50.761Z,53.18
2016-05-15T11:39:50.905Z,51.39
2016-05-15T11:40:50.908Z,49.71
2016-05-15T11:41:50.894Z,49.33
2016-05-15T11:42:50.897Z,48.28
2016-05-15T11:43:50.727Z,47.92
2016-05-15T11:44:50.887Z,47.73
2016-05-15T11:45:50.874Z,47.63
2016-05-15T11:46:50.877Z,47.63
2016-05-15T11:47:50.863Z,47.63
2016-05-15T11:48:50.850Z,47.63
2016-05-15T11:49:51.102Z,48.4
2016-05-15T11:50:50.856Z,48.38
2016-05-15T11:51:50.843Z,49.31
2016-05-15T11:52:50.830Z,50.52
2016-05-15T11:53:50.832Z,51.58
2016-05-15T11:54:50.820Z,52.51
2016-05-15T11:55:50.915Z,52.42
2016-05-15T11:56:50.810Z,53.25
2016-05-15T11:57:50.797Z,53.7
2016-05-15T11:58:50.784Z,54.47
2016-05-15T11:59:50.786Z,55.13
2016-05-15T12:00:50.976Z,55.11
2016-05-15T12:01:50.760Z,55.3
2016-05-15T12:02:50.763Z,56.04
2016-05-15T12:03:50.751Z,56.7
2016-05-15T12:04:50.581Z,57.28
2016-05-15T12:05:50.725Z,57.31
2016-05-15T12:06:50.742Z,56.82
2016-05-15T12:07:50.714Z,55.49
2016-05-15T12:08:50.717Z,55.2
2016-05-15T12:09:50.532Z,54.91
2016-05-15T12:10:50.691Z,54.56
2016-05-15T12:11:50.678Z,53.06
2016-05-15T12:12:50.665Z,52.32
2016-05-15T12:13:50.668Z,50.34
2016-05-15T12:14:50.655Z,48.73
2016-05-15T12:15:50.642Z,48.09
2016-05-15T12:16:50.660Z,48.38
2016-05-15T12:17:50.632Z,49.21
2016-05-15T12:18:50.634Z,49.24
2016-05-15T12:19:50.637Z,49.14
2016-05-15T12:20:50.469Z,49.14
2016-05-15T12:21:50.611Z,49.43
2016-05-15T12:22:50.614Z,49.91
2016-05-15T12:23:50.601Z,49.5
2016-05-15T12:24:50.604Z,49.62
2016-05-15T12:25:50.590Z,49.88
2016-05-15T12:26:50.578Z,49.79
2016-05-15T12:27:50.580Z,49.43
2016-05-15T12:28:50.568Z,49.43
2016-05-15T12:29:50.570Z,49.43
2016-05-15T12:30:50.557Z,48.85
2016-05-15T12:31:50.560Z,48.49
2016-05-15T12:32:50.548Z,48.21
2016-05-15T12:33:50.550Z,47.56
2016-05-15T12:34:50.537Z,46.98
2016-05-15T12:35:50.539Z,46.19
2016-05-15T12:36:50.526Z,45.52
2016-05-15T12:37:50.357Z,45.43
2016-05-15T12:38:50.517Z,45.59
2016-05-15T12:39:50.504Z,45.5
2016-05-15T12:40:50.506Z,46.36
2016-05-15T12:41:50.493Z,44.85
2016-05-15T12:42:50.495Z,44.83
2016-05-15T12:43:50.498Z,45.31
2016-05-15T12:44:50.485Z,45.38
2016-05-15T12:45:50.473Z,46.03
2016-05-15T12:46:50.475Z,46.12
2016-05-15T12:47:50.463Z,47.37
2016-05-15T12:48:50.450Z,47.47
2016-05-15T12:49:50.389Z,48.33
2016-05-15T12:50:50.439Z,48.3
2016-05-15T12:51:50.441Z,48.97
2016-05-15T12:52:50.429Z,49.9
2016-05-15T12:53:50.416Z,50.76
2016-05-15T12:54:50.247Z,52.77
2016-05-15T12:55:50.405Z,54.88